Time;durP1;ratioP1;P1;durP2;ratioP2;P2;SDS_P1;SDS_P2;PMS_P1;PMS_P2;Temp;Humidity;BMP_temperature;BMP_pressure;BME280_temperature;BME280_humidity;BME280_pressure;Samples;Min_cycle;Max_cycle;Signal;HPM_P1;HPM_P2
2023/04/05 00:01:18;;;;;;;6.27;4.20;;;9.60;43.50;;;;;;5074044;28;20539;-72
2023/04/05 00:03:46;;;;;;;4.93;4.13;;;9.50;43.70;;;;;;5073375;28;20877;-71
2023/04/05 00:06:15;;;;;;;5.83;4.43;;;9.50;44.00;;;;;;5073446;28;20486;-72
2023/04/05 00:08:48;;;;;;;7.07;4.40;;;9.40;44.10;;;;;;5073353;28;20467;-71
2023/04/05 00:11:15;;;;;;;5.80;4.30;;;9.30;44.00;;;;;;5053554;28;20488;-72
2023/04/05 00:13:42;;;;;;;5.53;4.67;;;9.30;44.10;;;;;;5053315;28;20940;-72
2023/04/05 00:16:09;;;;;;;5.17;4.50;;;9.30;44.10;;;;;;5053236;28;20977;-71
2023/04/05 00:18:37;;;;;;;8.07;5.63;;;9.20;44.30;;;;;;5054704;28;20470;-72
2023/04/05 00:21:04;;;;;;;8.03;5.07;;;9.20;44.00;;;;;;5073233;28;20555;-71
2023/04/05 00:23:38;;;;;;;7.27;5.07;;;9.20;44.30;;;;;;5072878;28;20491;-72
2023/04/05 00:26:06;;;;;;;7.03;5.40;;;9.20;45.20;;;;;;5072645;28;20470;-72
2023/04/05 00:28:34;;;;;;;7.17;5.73;;;9.20;44.40;;;;;;5072442;28;20471;-72
2023/04/05 00:31:01;;;;;;;15.70;11.83;;;9.20;44.50;;;;;;5072805;28;20505;-72
2023/04/05 00:33:28;;;;;;;10.83;8.63;;;9.20;44.40;;;;;;5071998;28;20451;-72
2023/04/05 00:35:55;;;;;;;12.60;8.17;;;9.20;44.60;;;;;;5072509;28;20471;-71
2023/04/05 00:38:22;;;;;;;6.03;5.17;;;9.10;44.60;;;;;;5072871;28;20447;-72
2023/04/05 00:40:48;;;;;;;5.50;4.90;;;9.10;44.70;;;;;;5072369;28;20943;-72
2023/04/05 00:43:17;;;;;;;6.23;4.80;;;9.10;45.00;;;;;;5072234;28;20830;-72
2023/04/05 00:45:44;;;;;;;6.50;4.73;;;9.00;45.40;;;;;;5071825;28;20465;-72
2023/04/05 00:48:12;;;;;;;4.33;3.93;;;9.00;46.00;;;;;;5072635;28;20505;-72
2023/04/05 00:50:40;;;;;;;4.50;4.03;;;8.90;46.60;;;;;;5072164;28;20455;-71
2023/04/05 00:53:07;;;;;;;5.67;4.33;;;8.90;46.80;;;;;;5072625;28;20451;-72
2023/04/05 00:55:35;;;;;;;4.70;4.30;;;8.80;46.90;;;;;;5070414;28;20452;-72
2023/04/05 00:58:02;;;;;;;4.30;3.90;;;8.80;47.00;;;;;;5072210;28;20454;-72
2023/04/05 01:00:30;;;;;;;5.60;4.37;;;8.70;47.10;;;;;;5072124;28;20562;-73
2023/04/05 01:03:01;;;;;;;4.47;4.07;;;8.70;47.10;;;;;;5072225;28;20451;-72
2023/04/05 01:05:35;;;;;;;6.50;4.40;;;8.60;47.30;;;;;;5071757;28;20832;-71
2023/04/05 01:08:12;;;;;;;4.70;3.93;;;8.60;47.80;;;;;;5072384;28;20460;-71
2023/04/05 01:10:44;;;;;;;4.87;4.17;;;8.50;47.60;;;;;;5071774;28;20451;-71
2023/04/05 01:13:11;;;;;;;5.70;4.10;;;8.50;47.40;;;;;;5072585;28;20451;-72
2023/04/05 01:15:39;;;;;;;5.00;4.50;;;8.40;47.70;;;;;;5071218;28;20543;-72
2023/04/05 01:18:09;;;;;;;7.60;5.20;;;8.40;48.00;;;;;;5072216;28;20467;-72
2023/04/05 01:20:41;;;;;;;6.93;4.47;;;8.30;47.80;;;;;;5071933;28;20451;-72
2023/04/05 01:23:41;;;;;;;5.17;4.43;;;8.30;48.10;;;;;;5070987;28;20567;-71
2023/04/05 01:26:35;;;;;;;6.03;4.60;;;8.20;48.10;;;;;;5071641;28;20458;-72
2023/04/05 01:29:38;;;;;;;5.60;4.10;;;8.20;48.20;;;;;;5072089;28;20451;-73
2023/04/05 01:32:14;;;;;;;5.60;4.27;;;8.10;48.30;;;;;;5071934;28;20837;-72
2023/04/05 01:34:50;;;;;;;6.33;4.57;;;8.00;48.80;;;;;;5071543;28;20447;-71
2023/04/05 01:37:20;;;;;;;7.17;4.63;;;8.00;48.10;;;;;;5071578;28;20565;-72
2023/04/05 01:39:49;;;;;;;6.30;4.40;;;8.00;48.10;;;;;;5071261;28;20482;-71
2023/04/05 01:42:23;;;;;;;5.60;4.93;;;7.90;48.30;;;;;;5071778;28;20455;-72
2023/04/05 01:44:52;;;;;;;6.73;4.67;;;7.90;48.60;;;;;;5070598;28;20472;-72
2023/04/05 01:47:19;;;;;;;5.33;4.33;;;7.90;48.70;;;;;;5071853;28;20797;-72
2023/04/05 01:49:46;;;;;;;5.10;4.60;;;7.80;48.60;;;;;;5071808;28;20482;-72
2023/04/05 01:52:13;;;;;;;4.80;4.27;;;7.80;48.90;;;;;;5071655;28;20475;-72
2023/04/05 01:54:40;;;;;;;4.83;4.23;;;7.70;49.30;;;;;;5071045;28;20958;-71
2023/04/05 01:57:07;;;;;;;5.93;4.50;;;7.90;49.70;;;;;;5071503;28;20446;-72
2023/04/05 01:59:34;;;;;;;4.17;3.77;;;7.70;49.80;;;;;;5072208;28;20451;-72
2023/04/05 02:02:02;;;;;;;4.77;4.20;;;7.60;49.80;;;;;;5075390;28;20475;-72
2023/04/05 02:04:29;;;;;;;6.53;4.33;;;7.60;50.40;;;;;;5075372;28;20455;-72
2023/04/05 02:06:55;;;;;;;5.67;4.17;;;7.60;51.10;;;;;;5075232;28;20455;-72
2023/04/05 02:09:22;;;;;;;4.90;4.10;;;7.50;50.60;;;;;;5075330;28;20471;-72
2023/04/05 02:11:49;;;;;;;6.10;4.13;;;7.50;50.90;;;;;;5075854;28;20486;-72
2023/04/05 02:14:16;;;;;;;5.43;4.13;;;7.50;50.80;;;;;;5074907;28;20533;-71
2023/04/05 02:16:43;;;;;;;5.27;4.03;;;7.40;50.70;;;;;;5075091;28;20451;-71
2023/04/05 02:19:12;;;;;;;5.43;4.70;;;7.40;50.70;;;;;;5075378;28;20517;-71
2023/04/05 02:21:39;;;;;;;5.93;4.27;;;7.40;50.90;;;;;;5075129;28;20478;-72
2023/04/05 02:24:07;;;;;;;5.53;4.23;;;7.30;51.00;;;;;;5074456;28;20467;-72
2023/04/05 02:26:33;;;;;;;4.73;4.23;;;7.30;51.30;;;;;;5075077;28;20473;-71
2023/04/05 02:29:00;;;;;;;5.43;4.33;;;7.30;50.80;;;;;;5074853;28;20935;-72
2023/04/05 02:31:27;;;;;;;5.03;3.90;;;7.20;51.10;;;;;;5075005;28;20479;-71
2023/04/05 02:33:54;;;;;;;6.57;4.00;;;7.20;51.20;;;;;;5074485;28;20554;-72
2023/04/05 02:36:23;;;;;;;6.80;4.33;;;7.10;51.10;;;;;;5074599;28;20493;-71
2023/04/05 02:38:50;;;;;;;6.43;5.00;;;7.10;51.20;;;;;;5074739;28;20460;-72
2023/04/05 02:41:16;;;;;;;4.70;4.07;;;7.10;51.20;;;;;;5074867;28;20443;-72
2023/04/05 02:43:43;;;;;;;6.37;4.57;;;7.10;51.30;;;;;;5074564;28;20471;-72
2023/04/05 02:46:10;;;;;;;4.77;4.10;;;7.00;51.50;;;;;;5074359;28;20461;-72
2023/04/05 02:48:38;;;;;;;4.80;4.30;;;7.00;51.70;;;;;;5074603;28;20451;-72
2023/04/05 02:51:05;;;;;;;6.27;4.73;;;7.00;52.00;;;;;;5074257;28;20451;-71
2023/04/05 02:53:33;;;;;;;5.93;4.50;;;7.00;52.10;;;;;;5074426;28;20493;-71
2023/04/05 02:56:00;;;;;;;5.50;4.33;;;7.00;52.10;;;;;;5074503;28;20448;-71
2023/04/05 02:58:27;;;;;;;5.57;4.37;;;7.00;52.20;;;;;;5074578;28;20455;-71
2023/04/05 03:00:55;;;;;;;4.93;4.40;;;6.90;52.40;;;;;;5074454;28;20451;-72
2023/04/05 03:03:22;;;;;;;4.63;4.23;;;6.90;52.70;;;;;;5074389;28;20501;-72
2023/04/05 03:05:59;;;;;;;5.40;4.23;;;6.80;52.80;;;;;;5074495;28;20978;-72
2023/04/05 03:08:27;;;;;;;5.93;4.53;;;6.80;52.90;;;;;;5074704;28;20454;-72
2023/04/05 03:10:55;;;;;;;4.50;4.10;;;6.80;52.90;;;;;;5091028;28;20528;-71
2023/04/05 03:13:22;;;;;;;4.93;4.20;;;6.80;53.10;;;;;;5092159;28;20482;-71
2023/04/05 03:15:53;;;;;;;7.13;4.53;;;6.80;53.20;;;;;;5073997;28;20457;-71
2023/04/05 03:18:20;;;;;;;5.57;4.50;;;6.80;53.20;;;;;;5074626;28;20450;-71
2023/04/05 03:20:49;;;;;;;6.23;5.03;;;6.70;53.30;;;;;;5074449;28;20450;-72
2023/04/05 03:23:16;;;;;;;5.03;4.37;;;6.70;53.40;;;;;;5075324;28;20529;-71
2023/04/05 03:25:43;;;;;;;4.43;4.03;;;6.60;53.30;;;;;;5073201;28;20474;-72
2023/04/05 03:28:11;;;;;;;5.57;4.87;;;6.60;53.40;;;;;;5074177;28;20475;-72
2023/04/05 03:30:38;;;;;;;5.87;4.17;;;6.60;53.40;;;;;;5074596;28;20531;-71
2023/04/05 03:33:05;;;;;;;4.90;4.40;;;6.50;53.20;;;;;;5073630;28;20999;-72
2023/04/05 03:35:32;;;;;;;6.20;4.70;;;6.50;53.20;;;;;;5073253;28;20452;-72
2023/04/05 03:37:59;;;;;;;6.20;4.20;;;6.50;53.30;;;;;;5073650;28;20209;-73
2023/04/05 03:40:26;;;;;;;6.55;4.55;;;6.50;53.40;;;;;;5073597;28;20486;-71
2023/04/05 03:42:53;;;;;;;5.57;4.40;;;6.50;53.50;;;;;;5073681;28;20217;-72
2023/04/05 03:45:22;;;;;;;5.50;4.60;;;6.50;53.50;;;;;;5073243;28;20914;-72
2023/04/05 03:47:51;;;;;;;7.13;4.80;;;6.40;53.70;;;;;;5073772;28;20224;-72
2023/04/05 03:50:18;;;;;;;5.72;4.35;;;6.40;53.50;;;;;;5073267;28;20443;-72
2023/04/05 03:52:45;;;;;;;5.65;4.93;;;6.40;53.60;;;;;;5073518;28;20841;-71
2023/04/05 03:55:12;;;;;;;4.73;4.10;;;6.40;53.70;;;;;;5073340;28;20564;-73
2023/04/05 03:57:41;;;;;;;7.47;4.90;;;6.30;53.60;;;;;;5073197;28;20505;-73
2023/04/05 04:00:13;;;;;;;5.00;4.50;;;6.30;53.70;;;;;;5073643;28;20473;-73
2023/04/05 04:02:42;;;;;;;8.25;4.97;;;6.30;53.60;;;;;;5072800;28;20194;-72
2023/04/05 04:05:10;;;;;;;6.40;4.82;;;6.30;54.00;;;;;;5073081;28;20221;-72
2023/04/05 04:07:36;;;;;;;6.22;4.90;;;6.20;54.20;;;;;;5073413;28;20288;-72
2023/04/05 04:10:04;;;;;;;6.23;4.77;;;6.20;54.80;;;;;;5072900;28;20216;-71
2023/04/05 04:12:31;;;;;;;4.88;4.38;;;6.20;54.40;;;;;;5072529;28;20485;-71
2023/04/05 04:14:58;;;;;;;6.80;4.65;;;6.20;54.40;;;;;;5072687;28;20223;-72
2023/04/05 04:17:28;;;;;;;5.80;4.32;;;6.20;54.50;;;;;;5072779;28;20216;-73
2023/04/05 04:19:57;;;;;;;6.07;4.47;;;6.20;54.30;;;;;;5073133;28;20841;-72
2023/04/05 04:22:25;;;;;;;5.45;4.35;;;6.20;54.40;;;;;;5071935;28;20211;-72
2023/04/05 04:24:52;;;;;;;7.50;5.03;;;6.10;54.10;;;;;;5071496;28;20232;-72
2023/04/05 04:27:19;;;;;;;5.47;4.70;;;6.10;54.20;;;;;;5071679;28;20201;-72
2023/04/05 04:29:47;;;;;;;8.98;4.95;;;6.10;54.20;;;;;;5073172;28;20209;-71
2023/04/05 04:32:15;;;;;;;5.68;4.70;;;6.20;54.30;;;;;;5072474;28;20229;-72
2023/04/05 04:34:43;;;;;;;6.33;4.70;;;6.10;54.90;;;;;;5071108;28;20193;-72
2023/04/05 04:37:17;;;;;;;7.03;4.57;;;6.10;54.20;;;;;;5072078;28;20479;-72
2023/04/05 04:39:46;;;;;;;5.43;4.43;;;6.10;54.10;;;;;;5072626;28;20201;-72
2023/04/05 04:42:13;;;;;;;6.25;4.80;;;6.10;54.10;;;;;;5072682;28;20224;-72
2023/04/05 04:44:42;;;;;;;5.35;4.85;;;6.00;54.10;;;;;;5064723;28;20227;-72
2023/04/05 04:47:12;;;;;;;5.18;4.50;;;6.00;54.30;;;;;;5071790;28;20677;-71
2023/04/05 04:49:39;;;;;;;5.90;4.43;;;5.90;54.90;;;;;;5072405;28;20266;-71
2023/04/05 04:52:06;;;;;;;4.90;4.18;;;5.90;54.40;;;;;;5071281;28;20217;-71
2023/04/05 04:54:35;;;;;;;5.97;4.70;;;5.90;54.40;;;;;;5072277;28;20620;-72
2023/04/05 04:57:02;;;;;;;4.65;4.15;;;5.80;54.50;;;;;;5072042;28;20783;-71
2023/04/05 04:59:29;;;;;;;6.32;4.30;;;5.80;54.50;;;;;;5072372;28;20577;-71
2023/04/05 05:01:56;;;;;;;5.72;5.03;;;5.80;54.60;;;;;;5070988;28;20237;-75
2023/04/05 05:04:23;;;;;;;5.05;4.50;;;5.80;54.60;;;;;;5053136;28;20201;-72
2023/04/05 05:06:51;;;;;;;6.03;5.00;;;5.80;54.80;;;;;;5072108;28;20851;-73
2023/04/05 05:09:18;;;;;;;6.10;4.90;;;5.80;54.80;;;;;;5072429;28;20478;-73
2023/04/05 05:11:46;;;;;;;7.57;4.72;;;5.80;54.70;;;;;;5072409;28;20201;-74
2023/04/05 05:14:13;;;;;;;5.30;4.70;;;5.80;54.70;;;;;;5072192;28;20243;-73
2023/04/05 05:16:40;;;;;;;5.82;4.60;;;5.80;54.90;;;;;;5069948;28;20247;-73
2023/04/05 05:19:07;;;;;;;5.45;4.90;;;5.70;55.00;;;;;;5071615;28;20202;-72
2023/04/05 05:21:35;;;;;;;5.70;5.10;;;5.70;55.10;;;;;;5072416;28;20892;-75
2023/04/05 05:24:02;;;;;;;5.40;4.70;;;5.70;55.20;;;;;;5072153;28;20251;-75
2023/04/05 05:26:29;;;;;;;7.28;4.32;;;5.70;55.20;;;;;;5072937;28;20292;-75
2023/04/05 05:29:00;;;;;;;5.15;4.40;;;5.70;55.20;;;;;;5053800;28;20561;-75
2023/04/05 05:31:28;;;;;;;9.43;5.70;;;5.70;55.50;;;;;;5053570;28;20204;-75
2023/04/05 05:33:55;;;;;;;8.60;6.20;;;5.70;55.50;;;;;;5072217;28;20232;-71
2023/04/05 05:36:22;;;;;;;9.95;6.82;;;5.70;55.40;;;;;;5072050;28;20201;-72
2023/04/05 05:38:49;;;;;;;10.60;6.70;;;5.70;55.30;;;;;;5071745;28;20201;-72
2023/04/05 05:41:16;;;;;;;5.95;5.07;;;5.80;55.20;;;;;;5071170;28;20221;-73
2023/04/05 05:43:42;;;;;;;6.60;4.90;;;5.80;55.30;;;;;;5071683;28;20223;-72
2023/04/05 05:46:11;;;;;;;7.45;5.15;;;5.80;55.40;;;;;;5071394;28;20204;-69
2023/04/05 05:48:37;;;;;;;6.70;5.03;;;5.90;55.50;;;;;;5071758;28;20197;-67
2023/04/05 05:51:08;;;;;;;6.88;5.57;;;5.90;55.30;;;;;;5071444;28;20651;-69
2023/04/05 05:53:36;;;;;;;6.78;5.60;;;5.90;55.30;;;;;;5071497;28;20649;-68
2023/04/05 05:56:03;;;;;;;5.70;5.13;;;6.00;55.40;;;;;;5070329;28;20209;-68
2023/04/05 05:58:29;;;;;;;9.25;5.40;;;6.00;55.40;;;;;;5071079;28;20216;-69
2023/04/05 06:00:57;;;;;;;6.53;4.93;;;6.10;55.50;;;;;;5071470;28;20215;-69
2023/04/05 06:03:28;;;;;;;5.93;5.25;;;6.10;55.40;;;;;;5071756;28;20917;-66
2023/04/05 06:05:56;;;;;;;4.88;4.38;;;6.10;55.40;;;;;;5071149;28;20679;-66
2023/04/05 06:08:24;;;;;;;6.47;4.93;;;6.20;55.30;;;;;;5070840;28;20193;-68
2023/04/05 06:10:52;;;;;;;5.97;4.97;;;6.20;55.00;;;;;;5070775;28;20209;-68
2023/04/05 06:13:19;;;;;;;6.55;5.00;;;6.30;54.90;;;;;;5071120;28;20489;-67
2023/04/05 06:15:47;;;;;;;7.07;5.30;;;6.40;54.90;;;;;;5069934;28;20309;-67
2023/04/05 06:18:14;;;;;;;7.32;4.85;;;6.40;54.90;;;;;;5070773;28;20229;-67
2023/04/05 06:20:43;;;;;;;6.95;5.22;;;6.50;54.80;;;;;;5070643;28;20283;-67
2023/04/05 06:23:10;;;;;;;6.80;5.13;;;6.50;54.70;;;;;;5070350;28;20697;-67
2023/04/05 06:25:37;;;;;;;8.15;5.90;;;6.60;54.40;;;;;;5069900;28;21028;-67
2023/04/05 06:28:05;;;;;;;10.52;6.57;;;6.70;54.20;;;;;;5070734;28;20293;-67
2023/04/05 06:30:32;;;;;;;7.10;5.63;;;6.80;54.40;;;;;;5070239;28;20230;-67
2023/04/05 06:32:59;;;;;;;7.67;5.60;;;6.80;54.20;;;;;;5070564;28;20933;-65
2023/04/05 06:35:26;;;;;;;7.30;5.17;;;6.90;54.00;;;;;;5070142;28;20443;-67
2023/04/05 06:37:55;;;;;;;6.03;5.05;;;7.00;53.60;;;;;;5070159;28;20566;-66
2023/04/05 06:40:21;;;;;;;5.73;4.93;;;7.10;53.60;;;;;;5070484;28;20205;-65
2023/04/05 06:42:48;;;;;;;8.37;5.23;;;7.10;53.50;;;;;;5071393;28;20533;-66
2023/04/05 06:45:25;;;;;;;4.68;4.28;;;7.20;53.40;;;;;;5070270;28;20465;-66
2023/04/05 06:47:52;;;;;;;5.78;4.80;;;7.30;53.00;;;;;;5072246;28;20204;-66
2023/04/05 06:50:18;;;;;;;6.57;4.13;;;7.30;52.30;;;;;;5073870;28;20325;-65
2023/04/05 06:52:45;;;;;;;5.97;4.67;;;7.40;52.40;;;;;;5073642;28;20479;-65
2023/04/05 06:55:13;;;;;;;6.80;4.47;;;7.50;52.50;;;;;;5065993;28;20456;-65
2023/04/05 06:57:40;;;;;;;5.87;4.63;;;7.60;51.80;;;;;;5073460;28;20459;-66
2023/04/05 07:00:10;;;;;;;4.93;3.90;;;7.70;51.60;;;;;;5073673;28;20835;-66
2023/04/05 07:02:37;;;;;;;5.13;4.60;;;7.80;51.50;;;;;;5073499;28;20831;-66
2023/04/05 07:05:04;;;;;;;6.00;4.20;;;7.90;51.30;;;;;;5073317;28;20545;-66
2023/04/05 07:07:32;;;;;;;5.60;4.37;;;8.00;51.10;;;;;;5073424;28;20443;-66
2023/04/05 07:09:58;;;;;;;4.23;3.87;;;8.10;50.90;;;;;;5073534;28;20542;-67
2023/04/05 07:12:27;;;;;;;6.37;3.60;;;8.10;50.90;;;;;;5073469;28;20449;-66
2023/04/05 07:14:53;;;;;;;4.47;3.97;;;8.20;50.70;;;;;;5072955;28;20490;-66
2023/04/05 07:17:20;;;;;;;4.90;3.83;;;8.30;50.20;;;;;;5073084;28;20459;-67
2023/04/05 07:19:47;;;;;;;6.27;4.17;;;8.40;49.80;;;;;;5073471;28;20832;-66
2023/04/05 07:22:14;;;;;;;5.07;3.50;;;8.50;49.30;;;;;;5072831;28;20477;-66
2023/04/05 07:24:41;;;;;;;6.80;3.80;;;8.50;49.10;;;;;;5072893;28;20538;-67
2023/04/05 07:27:08;;;;;;;4.27;3.87;;;8.60;49.10;;;;;;5072858;28;20554;-67
2023/04/05 07:29:39;;;;;;;6.00;3.90;;;8.70;48.50;;;;;;5072931;28;20451;-66
2023/04/05 07:32:06;;;;;;;5.07;3.57;;;8.80;48.70;;;;;;5072911;28;20485;-67
2023/04/05 07:34:33;;;;;;;4.63;4.07;;;8.80;48.30;;;;;;5072907;28;20499;-67
2023/04/05 07:37:00;;;;;;;4.63;3.60;;;8.90;47.90;;;;;;5072746;28;20444;-67
2023/04/05 07:39:27;;;;;;;6.37;3.83;;;8.90;47.70;;;;;;5072900;28;20446;-66
2023/04/05 07:42:02;;;;;;;4.10;3.60;;;9.00;48.30;;;;;;5072973;28;20443;-67
2023/04/05 07:44:32;;;;;;;4.93;3.63;;;9.10;47.30;;;;;;5071776;28;20465;-66
2023/04/05 07:47:00;;;;;;;4.40;3.70;;;9.20;47.40;;;;;;5072640;28;20472;-65
2023/04/05 07:49:33;;;;;;;4.47;3.67;;;9.20;47.10;;;;;;5072806;28;20479;-66
2023/04/05 07:52:00;;;;;;;5.13;3.80;;;9.30;47.00;;;;;;5072668;28;20542;-67
2023/04/05 07:54:27;;;;;;;3.93;3.57;;;9.40;47.10;;;;;;5072456;28;20482;-65
2023/04/05 07:56:56;;;;;;;4.50;3.70;;;9.50;48.10;;;;;;5072131;28;20458;-65
2023/04/05 07:59:23;;;;;;;5.17;3.70;;;9.60;47.60;;;;;;5072388;28;20471;-66
2023/04/05 08:01:56;;;;;;;4.73;3.70;;;9.70;47.70;;;;;;5072475;28;20530;-66
2023/04/05 08:04:25;;;;;;;6.03;3.93;;;9.80;47.20;;;;;;5071996;28;20447;-67
2023/04/05 08:06:52;;;;;;;6.30;4.27;;;9.90;47.30;;;;;;5072094;28;20444;-66
2023/04/05 08:09:18;;;;;;;4.63;3.70;;;9.90;46.20;;;;;;5072165;28;20446;-66
2023/04/05 08:11:45;;;;;;;4.40;3.80;;;10.10;46.00;;;;;;5071730;28;20468;-68
2023/04/05 08:14:13;;;;;;;5.03;3.67;;;10.20;45.80;;;;;;5071365;28;20483;-66
2023/04/05 08:16:40;;;;;;;5.43;4.27;;;10.30;45.70;;;;;;5070338;28;20482;-67
2023/04/05 08:19:12;;;;;;;4.17;3.07;;;10.40;45.50;;;;;;5072167;28;20449;-66
2023/04/05 08:21:41;;;;;;;7.50;3.83;;;10.50;45.60;;;;;;5071947;28;20451;-67
2023/04/05 08:24:08;;;;;;;5.67;3.63;;;10.60;45.30;;;;;;5071323;28;21014;-66
2023/04/05 08:26:42;;;;;;;5.27;3.93;;;10.70;45.40;;;;;;5072506;28;20447;-66
2023/04/05 08:29:09;;;;;;;6.57;3.87;;;10.80;45.30;;;;;;5072603;28;20471;-66
2023/04/05 08:31:38;;;;;;;5.13;3.70;;;10.90;44.90;;;;;;5052165;28;20460;-67
2023/04/05 08:34:07;;;;;;;4.63;3.83;;;11.00;44.80;;;;;;5057393;28;20481;-67
2023/04/05 08:36:44;;;;;;;4.43;3.73;;;11.00;45.00;;;;;;5071629;28;20448;-66
2023/04/05 08:39:14;;;;;;;4.00;3.60;;;11.10;44.70;;;;;;5072871;28;20458;-66
2023/04/05 08:41:49;;;;;;;4.60;3.60;;;11.20;44.50;;;;;;5052391;28;20455;-66
2023/04/05 08:44:19;;;;;;;4.40;4.00;;;11.40;44.80;;;;;;5062073;28;20474;-66
2023/04/05 08:46:50;;;;;;;6.20;3.90;;;11.50;44.10;;;;;;5072108;28;20482;-66
2023/04/05 08:49:17;;;;;;;4.93;3.67;;;11.50;44.30;;;;;;5071101;28;20451;-68
2023/04/05 08:51:45;;;;;;;4.20;3.43;;;11.70;44.50;;;;;;5071174;28;20955;-66
2023/04/05 08:54:13;;;;;;;6.17;3.90;;;11.80;44.00;;;;;;5071153;28;20579;-66
2023/04/05 08:56:42;;;;;;;5.43;4.00;;;11.80;44.20;;;;;;5071096;28;20450;-65
2023/04/05 08:59:11;;;;;;;4.17;3.67;;;11.90;43.60;;;;;;5071302;28;20474;-66
2023/04/05 09:01:41;;;;;;;4.40;3.80;;;12.10;43.40;;;;;;5071009;28;20530;-66
2023/04/05 09:04:15;;;;;;;5.80;3.90;;;12.10;43.10;;;;;;5071099;28;20531;-66
2023/04/05 09:06:44;;;;;;;4.30;3.60;;;12.20;42.40;;;;;;5071102;28;20458;-66
2023/04/05 09:09:12;;;;;;;4.57;4.10;;;12.30;43.20;;;;;;5071403;28;20538;-65
2023/04/05 09:11:40;;;;;;;6.13;4.10;;;12.50;42.10;;;;;;5070277;28;20477;-66
2023/04/05 09:14:07;;;;;;;5.60;3.90;;;12.50;41.90;;;;;;5070725;28;20479;-66
2023/04/05 09:16:37;;;;;;;5.17;4.10;;;12.70;42.60;;;;;;5071046;28;20438;-67
2023/04/05 09:19:05;;;;;;;5.67;4.40;;;12.80;41.90;;;;;;5070906;28;20454;-68
2023/04/05 09:22:02;;;;;;;4.33;3.73;;;12.90;41.40;;;;;;5071010;28;20455;-65
2023/04/05 09:24:34;;;;;;;6.90;4.50;;;13.00;40.70;;;;;;5050644;28;20438;-66
2023/04/05 09:27:05;;;;;;;4.77;3.77;;;13.00;41.90;;;;;;5050785;28;20913;-66
2023/04/05 09:29:32;;;;;;;5.27;4.50;;;13.20;41.40;;;;;;5051094;28;20494;-66
2023/04/05 09:32:01;;;;;;;4.77;3.70;;;13.30;40.50;;;;;;5051040;28;20505;-66
2023/04/05 09:34:31;;;;;;;6.27;3.77;;;13.40;40.70;;;;;;5050711;28;20492;-66
2023/04/05 09:36:58;;;;;;;5.23;4.03;;;13.50;40.70;;;;;;5050646;28;20477;-66
2023/04/05 09:39:31;;;;;;;5.47;4.20;;;13.60;39.70;;;;;;5067596;28;20490;-67
2023/04/05 09:42:09;;;;;;;4.33;3.90;;;13.70;39.30;;;;;;5070671;28;21025;-66
2023/04/05 09:44:52;;;;;;;6.07;4.00;;;13.80;39.80;;;;;;5070687;28;20482;-66
2023/04/05 09:47:20;;;;;;;6.10;4.10;;;14.00;38.70;;;;;;5070464;28;20478;-67
2023/04/05 09:49:47;;;;;;;4.30;3.73;;;14.10;39.60;;;;;;5070823;28;20499;-67
2023/04/05 09:52:21;;;;;;;5.10;3.80;;;14.10;38.30;;;;;;5070849;28;20465;-67
2023/04/05 09:54:52;;;;;;;4.70;3.67;;;14.20;38.80;;;;;;5070396;28;20569;-67
2023/04/05 09:57:19;;;;;;;5.50;4.53;;;14.40;38.80;;;;;;5070552;28;20497;-67
2023/04/05 09:59:47;;;;;;;6.17;3.93;;;14.40;37.90;;;;;;5070810;28;20843;-67
2023/04/05 10:02:15;;;;;;;5.00;3.70;;;14.50;37.50;;;;;;5070521;28;20454;-66
2023/04/05 10:04:44;;;;;;;5.90;4.07;;;14.50;36.70;;;;;;5071668;28;21041;-67
2023/04/05 10:07:13;;;;;;;4.73;4.23;;;14.60;37.10;;;;;;5070273;28;20447;-68
2023/04/05 10:09:40;;;;;;;3.97;3.57;;;14.60;36.90;;;;;;5070570;28;20450;-67
2023/04/05 10:12:12;;;;;;;4.40;4.00;;;14.80;37.50;;;;;;5071455;28;20487;-65
2023/04/05 10:14:39;;;;;;;4.80;4.27;;;14.90;36.70;;;;;;5071396;28;20475;-65
2023/04/05 10:17:12;;;;;;;4.60;3.90;;;14.90;36.40;;;;;;5071064;28;20475;-66
2023/04/05 10:19:51;;;;;;;5.07;4.20;;;15.00;36.50;;;;;;5071911;28;20442;-67
2023/04/05 10:22:24;;;;;;;5.27;3.83;;;15.10;36.20;;;;;;5072043;28;20449;-67
2023/04/05 10:24:55;;;;;;;5.00;3.77;;;15.30;35.30;;;;;;5075179;28;20443;-67
2023/04/05 10:27:31;;;;;;;3.90;3.50;;;15.40;35.70;;;;;;5074823;28;20910;-67
2023/04/05 10:30:07;;;;;;;4.73;4.23;;;15.50;37.50;;;;;;5075000;28;20524;-66
2023/04/05 10:32:50;;;;;;;5.03;4.03;;;15.70;35.70;;;;;;5073940;28;20454;-66
2023/04/05 10:35:20;;;;;;;4.57;3.67;;;15.80;34.80;;;;;;5074105;28;20493;-67
2023/04/05 10:38:04;;;;;;;5.77;4.30;;;15.90;34.70;;;;;;5073719;28;20921;-67
2023/04/05 10:40:32;;;;;;;4.60;3.80;;;15.90;34.50;;;;;;5073844;28;20455;-67
2023/04/05 10:43:01;;;;;;;9.27;4.60;;;15.90;34.40;;;;;;5073798;28;20477;-66
2023/04/05 10:45:28;;;;;;;5.43;4.20;;;15.80;33.40;;;;;;5063937;28;20454;-66
2023/04/05 10:48:00;;;;;;;5.97;4.30;;;15.80;35.20;;;;;;5074222;28;20558;-68
2023/04/05 10:50:28;;;;;;;5.23;4.23;;;15.90;34.20;;;;;;5074880;28;20451;-67
2023/04/05 10:52:58;;;;;;;7.90;4.00;;;16.00;34.60;;;;;;5074379;28;20975;-67
2023/04/05 10:55:26;;;;;;;6.43;3.63;;;16.10;34.60;;;;;;5074027;28;20481;-66
2023/04/05 10:57:55;;;;;;;4.27;3.87;;;16.20;34.90;;;;;;5073733;28;20453;-68
2023/04/05 11:00:24;;;;;;;4.50;4.10;;;16.30;34.80;;;;;;5073105;28;20489;-67
2023/04/05 11:02:55;;;;;;;4.17;3.80;;;16.50;34.50;;;;;;5074280;28;20447;-67
2023/04/05 11:05:33;;;;;;;4.33;3.93;;;16.60;34.70;;;;;;5074164;28;20525;-67
2023/04/05 11:08:04;;;;;;;4.33;3.93;;;16.70;34.60;;;;;;5074201;28;20466;-67
2023/04/05 11:10:31;;;;;;;5.00;3.97;;;16.80;34.00;;;;;;5073061;28;20454;-67
2023/04/05 11:13:07;;;;;;;7.13;4.20;;;16.90;34.60;;;;;;5074417;28;20454;-68
2023/04/05 11:15:36;;;;;;;5.40;3.87;;;17.00;34.00;;;;;;5073388;28;20485;-66
2023/04/05 11:18:08;;;;;;;4.47;3.60;;;17.10;33.70;;;;;;5074005;28;20558;-69
2023/04/05 11:20:43;;;;;;;4.83;4.07;;;17.10;33.00;;;;;;5073973;28;20475;-66
2023/04/05 11:23:11;;;;;;;4.53;4.10;;;17.20;33.50;;;;;;5073906;28;20457;-67
2023/04/05 11:25:40;;;;;;;4.40;4.00;;;17.20;33.30;;;;;;5073377;28;20522;-67
2023/04/05 11:28:08;;;;;;;5.17;3.80;;;17.30;33.80;;;;;;5072997;28;20447;-69
2023/04/05 11:30:50;;;;;;;4.37;3.97;;;17.40;33.80;;;;;;5073917;28;20474;-66
2023/04/05 11:33:54;;;;;;;4.10;3.70;;;17.40;33.40;;;;;;5072639;28;20451;-68
2023/04/05 11:36:37;;;;;;;4.70;3.57;;;17.50;31.70;;;;;;5063667;28;20506;-66
2023/04/05 11:39:24;;;;;;;4.00;3.50;;;17.60;31.80;;;;;;5073988;28;20482;-67
2023/04/05 11:41:56;;;;;;;3.80;3.50;;;17.60;32.50;;;;;;5073881;28;20521;-67
2023/04/05 11:44:23;;;;;;;4.20;3.73;;;17.80;33.10;;;;;;5073787;28;20464;-67
2023/04/05 11:46:52;;;;;;;6.00;4.20;;;17.80;33.50;;;;;;5073251;28;20447;-67
2023/04/05 11:49:22;;;;;;;5.83;4.30;;;18.00;33.80;;;;;;5073310;28;20489;-68
2023/04/05 11:51:50;;;;;;;4.60;3.93;;;18.10;33.10;;;;;;5073414;28;20447;-67
2023/04/05 11:54:29;;;;;;;4.30;3.90;;;18.20;32.00;;;;;;5073408;28;20966;-69
2023/04/05 11:56:56;;;;;;;4.10;3.70;;;18.30;31.90;;;;;;5073399;28;20896;-66
2023/04/05 11:59:29;;;;;;;5.07;4.53;;;18.30;32.20;;;;;;5072854;28;20951;-67
2023/04/05 12:02:00;;;;;;;4.17;3.60;;;18.20;30.80;;;;;;5072693;28;20944;-67
2023/04/05 12:04:27;;;;;;;4.10;3.77;;;18.30;31.70;;;;;;5072153;28;20443;-67
2023/04/05 12:07:15;;;;;;;5.37;4.00;;;18.40;31.50;;;;;;5071835;28;20498;-68
2023/04/05 12:10:07;;;;;;;3.77;3.47;;;18.50;31.00;;;;;;5072700;28;20865;-67
2023/04/05 12:12:37;;;;;;;7.17;4.27;;;18.60;31.60;;;;;;5072596;28;20561;-67
2023/04/05 12:15:07;;;;;;;5.10;3.73;;;18.60;30.90;;;;;;5071792;28;20913;-68
2023/04/05 12:17:56;;;;;;;6.30;4.37;;;18.70;31.00;;;;;;5071745;28;20205;-67
2023/04/05 12:20:24;;;;;;;5.50;3.70;;;18.70;30.10;;;;;;5067968;28;20236;-67
2023/04/05 12:22:53;;;;;;;6.27;3.87;;;18.80;31.30;;;;;;5072980;28;20258;-68
2023/04/05 12:25:20;;;;;;;5.43;4.33;;;18.80;31.10;;;;;;5072959;28;20208;-67
2023/04/05 12:27:48;;;;;;;4.50;4.10;;;18.80;31.00;;;;;;5072698;28;20217;-66
2023/04/05 12:30:16;;;;;;;5.73;3.80;;;18.80;30.60;;;;;;5073252;28;20293;-67
2023/04/05 12:32:45;;;;;;;4.67;3.93;;;18.80;31.20;;;;;;5072835;28;20559;-68
2023/04/05 12:35:15;;;;;;;4.00;3.60;;;19.00;31.50;;;;;;5071668;28;20219;-68
2023/04/05 12:37:43;;;;;;;4.83;3.87;;;19.10;31.40;;;;;;5061862;28;20197;-69
2023/04/05 12:40:10;;;;;;;5.60;4.20;;;19.20;30.70;;;;;;5068761;28;20201;-70
2023/04/05 12:42:38;;;;;;;4.17;3.77;;;19.30;30.40;;;;;;5072490;28;20200;-69
2023/04/05 12:45:07;;;;;;;4.07;3.67;;;19.40;30.00;;;;;;5071811;28;20315;-68
2023/04/05 12:47:35;;;;;;;4.00;3.60;;;19.50;30.10;;;;;;5072460;28;20450;-68
2023/04/05 12:50:15;;;;;;;3.77;3.40;;;19.60;29.90;;;;;;5070780;28;20653;-72
2023/04/05 12:52:52;;;;;;;4.50;3.70;;;19.70;30.00;;;;;;5072335;28;20296;-70
2023/04/05 12:55:20;;;;;;;5.10;3.87;;;19.80;30.30;;;;;;5070774;28;20221;-70
2023/04/05 12:57:50;;;;;;;4.97;3.63;;;19.90;30.10;;;;;;5056720;28;20224;-70
2023/04/05 13:00:18;;;;;;;4.63;4.07;;;20.00;29.80;;;;;;5070302;28;20197;-70
2023/04/05 13:02:49;;;;;;;4.37;3.77;;;20.10;29.10;;;;;;5071040;28;20208;-70
2023/04/05 13:05:18;;;;;;;4.00;3.57;;;20.10;29.40;;;;;;5070564;28;20266;-71